sensor_id;sensor_type;location;lat;lon;timestamp;P1;durP1;ratioP1;P2;durP2;ratioP2
8094;SDS011;4090;49.270;8.696;2022-07-03T00:01:13;1.70;;;1.60;;
8094;SDS011;4090;49.270;8.696;2022-07-03T00:03:55;2.45;;;1.77;;
8094;SDS011;4090;49.270;8.696;2022-07-03T00:06:37;1.98;;;1.52;;
8094;SDS011;4090;49.270;8.696;2022-07-03T00:09:18;3.00;;;1.50;;
8094;SDS011;4090;49.270;8.696;2022-07-03T00:12:02;1.63;;;1.42;;
8094;SDS011;4090;49.270;8.696;2022-07-03T00:14:45;3.28;;;1.70;;
8094;SDS011;4090;49.270;8.696;2022-07-03T00:17:26;2.58;;;1.38;;
8094;SDS011;4090;49.270;8.696;2022-07-03T00:20:09;3.33;;;1.70;;
8094;SDS011;4090;49.270;8.696;2022-07-03T00:22:51;3.35;;;1.60;;
8094;SDS011;4090;49.270;8.696;2022-07-03T00:25:33;1.70;;;1.60;;
8094;SDS011;4090;49.270;8.696;2022-07-03T00:28:18;1.85;;;1.48;;
8094;SDS011;4090;49.270;8.696;2022-07-03T00:31:00;1.48;;;1.27;;
8094;SDS011;4090;49.270;8.696;2022-07-03T00:33:42;2.17;;;1.48;;
8094;SDS011;4090;49.270;8.696;2022-07-03T00:36:29;1.83;;;1.45;;
8094;SDS011;4090;49.270;8.696;2022-07-03T00:39:15;1.52;;;1.42;;
8094;SDS011;4090;49.270;8.696;2022-07-03T00:42:00;1.30;;;1.30;;
8094;SDS011;4090;49.270;8.696;2022-07-03T00:44:45;2.60;;;1.40;;
8094;SDS011;4090;49.270;8.696;2022-07-03T00:47:28;1.70;;;1.60;;
8094;SDS011;4090;49.270;8.696;2022-07-03T00:50:11;1.52;;;1.42;;
8094;SDS011;4090;49.270;8.696;2022-07-03T00:52:53;1.90;;;1.80;;
8094;SDS011;4090;49.270;8.696;2022-07-03T00:55:39;1.98;;;1.60;;
8094;SDS011;4090;49.270;8.696;2022-07-03T00:58:22;3.05;;;1.67;;
8094;SDS011;4090;49.270;8.696;2022-07-03T01:01:05;1.90;;;1.80;;
8094;SDS011;4090;49.270;8.696;2022-07-03T01:03:48;2.53;;;1.73;;
8094;SDS011;4090;49.270;8.696;2022-07-03T01:06:37;2.17;;;1.90;;
8094;SDS011;4090;49.270;8.696;2022-07-03T01:09:26;3.80;;;1.90;;
8094;SDS011;4090;49.270;8.696;2022-07-03T01:12:19;2.85;;;1.80;;
8094;SDS011;4090;49.270;8.696;2022-07-03T01:15:10;5.55;;;1.80;;
8094;SDS011;4090;49.270;8.696;2022-07-03T01:17:55;1.80;;;1.70;;
8094;SDS011;4090;49.270;8.696;2022-07-03T01:20:44;2.13;;;1.67;;
8094;SDS011;4090;49.270;8.696;2022-07-03T01:23:39;2.47;;;1.77;;
8094;SDS011;4090;49.270;8.696;2022-07-03T01:26:40;3.22;;;1.67;;
8094;SDS011;4090;49.270;8.696;2022-07-03T01:29:29;3.42;;;2.25;;
8094;SDS011;4090;49.270;8.696;2022-07-03T01:32:16;1.52;;;1.42;;
8094;SDS011;4090;49.270;8.696;2022-07-03T01:35:03;2.10;;;1.90;;
8094;SDS011;4090;49.270;8.696;2022-07-03T01:37:48;1.70;;;1.60;;
8094;SDS011;4090;49.270;8.696;2022-07-03T01:40:34;2.78;;;1.60;;
8094;SDS011;4090;49.270;8.696;2022-07-03T01:43:19;2.00;;;1.83;;
8094;SDS011;4090;49.270;8.696;2022-07-03T01:46:08;1.52;;;1.42;;
8094;SDS011;4090;49.270;8.696;2022-07-03T01:48:52;4.53;;;2.00;;
8094;SDS011;4090;49.270;8.696;2022-07-03T01:51:36;3.97;;;1.95;;
8094;SDS011;4090;49.270;8.696;2022-07-03T01:54:20;3.13;;;1.50;;
8094;SDS011;4090;49.270;8.696;2022-07-03T01:57:06;2.75;;;2.05;;
8094;SDS011;4090;49.270;8.696;2022-07-03T01:59:50;1.80;;;1.70;;
8094;SDS011;4090;49.270;8.696;2022-07-03T02:02:37;1.98;;;1.83;;
8094;SDS011;4090;49.270;8.696;2022-07-03T02:05:30;2.28;;;2.08;;
8094;SDS011;4090;49.270;8.696;2022-07-03T02:08:26;5.15;;;2.05;;
8094;SDS011;4090;49.270;8.696;2022-07-03T02:11:14;2.20;;;2.00;;
8094;SDS011;4090;49.270;8.696;2022-07-03T02:13:59;3.58;;;1.80;;
8094;SDS011;4090;49.270;8.696;2022-07-03T02:16:58;2.35;;;2.00;;
8094;SDS011;4090;49.270;8.696;2022-07-03T02:19:48;2.28;;;2.00;;
8094;SDS011;4090;49.270;8.696;2022-07-03T02:22:35;1.85;;;1.73;;
8094;SDS011;4090;49.270;8.696;2022-07-03T02:25:21;2.05;;;1.85;;
8094;SDS011;4090;49.270;8.696;2022-07-03T02:28:04;2.90;;;2.10;;
8094;SDS011;4090;49.270;8.696;2022-07-03T02:30:57;2.30;;;1.90;;
8094;SDS011;4090;49.270;8.696;2022-07-03T02:33:44;3.88;;;1.83;;
8094;SDS011;4090;49.270;8.696;2022-07-03T02:36:28;2.40;;;2.20;;
8094;SDS011;4090;49.270;8.696;2022-07-03T02:39:14;3.45;;;2.30;;
8094;SDS011;4090;49.270;8.696;2022-07-03T02:42:02;3.72;;;1.83;;
8094;SDS011;4090;49.270;8.696;2022-07-03T02:44:50;2.58;;;1.95;;
8094;SDS011;4090;49.270;8.696;2022-07-03T02:47:35;2.70;;;1.90;;
8094;SDS011;4090;49.270;8.696;2022-07-03T02:50:26;2.42;;;2.22;;
8094;SDS011;4090;49.270;8.696;2022-07-03T02:53:14;3.28;;;2.03;;
8094;SDS011;4090;49.270;8.696;2022-07-03T02:56:04;2.55;;;2.05;;
8094;SDS011;4090;49.270;8.696;2022-07-03T02:58:52;3.08;;;2.00;;
8094;SDS011;4090;49.270;8.696;2022-07-03T03:01:41;3.03;;;1.92;;
8094;SDS011;4090;49.270;8.696;2022-07-03T03:04:29;1.95;;;1.77;;
8094;SDS011;4090;49.270;8.696;2022-07-03T03:07:14;2.13;;;1.92;;
8094;SDS011;4090;49.270;8.696;2022-07-03T03:09:57;3.45;;;1.98;;
8094;SDS011;4090;49.270;8.696;2022-07-03T03:12:40;2.20;;;1.98;;
8094;SDS011;4090;49.270;8.696;2022-07-03T03:15:27;2.97;;;2.10;;
8094;SDS011;4090;49.270;8.696;2022-07-03T03:18:11;2.83;;;1.85;;
8094;SDS011;4090;49.270;8.696;2022-07-03T03:20:59;3.25;;;1.95;;
8094;SDS011;4090;49.270;8.696;2022-07-03T03:23:46;4.55;;;2.05;;
8094;SDS011;4090;49.270;8.696;2022-07-03T03:26:29;1.83;;;1.73;;
8094;SDS011;4090;49.270;8.696;2022-07-03T03:29:12;2.22;;;2.00;;
8094;SDS011;4090;49.270;8.696;2022-07-03T03:31:54;3.67;;;1.90;;
8094;SDS011;4090;49.270;8.696;2022-07-03T03:34:35;2.45;;;1.98;;
8094;SDS011;4090;49.270;8.696;2022-07-03T03:37:19;2.03;;;1.83;;
8094;SDS011;4090;49.270;8.696;2022-07-03T03:40:03;2.40;;;2.00;;
8094;SDS011;4090;49.270;8.696;2022-07-03T03:42:45;2.08;;;1.77;;
8094;SDS011;4090;49.270;8.696;2022-07-03T03:45:27;2.85;;;2.00;;
8094;SDS011;4090;49.270;8.696;2022-07-03T03:48:09;2.83;;;2.20;;
8094;SDS011;4090;49.270;8.696;2022-07-03T03:50:51;3.45;;;2.22;;
8094;SDS011;4090;49.270;8.696;2022-07-03T03:53:33;2.83;;;2.00;;
8094;SDS011;4090;49.270;8.696;2022-07-03T03:56:16;3.65;;;2.00;;
8094;SDS011;4090;49.270;8.696;2022-07-03T03:58:58;2.85;;;2.00;;
8094;SDS011;4090;49.270;8.696;2022-07-03T04:01:39;2.55;;;2.00;;
8094;SDS011;4090;49.270;8.696;2022-07-03T04:04:21;4.65;;;2.05;;
8094;SDS011;4090;49.270;8.696;2022-07-03T04:07:04;2.13;;;1.80;;
8094;SDS011;4090;49.270;8.696;2022-07-03T04:09:46;2.63;;;2.03;;
8094;SDS011;4090;49.270;8.696;2022-07-03T04:12:29;3.22;;;2.00;;
8094;SDS011;4090;49.270;8.696;2022-07-03T04:15:11;2.33;;;2.10;;
8094;SDS011;4090;49.270;8.696;2022-07-03T04:17:53;3.20;;;2.20;;
8094;SDS011;4090;49.270;8.696;2022-07-03T04:20:35;2.88;;;2.10;;
8094;SDS011;4090;49.270;8.696;2022-07-03T04:23:16;4.60;;;2.20;;
8094;SDS011;4090;49.270;8.696;2022-07-03T04:26:02;2.30;;;1.92;;
8094;SDS011;4090;49.270;8.696;2022-07-03T04:28:46;4.43;;;2.30;;
8094;SDS011;4090;49.270;8.696;2022-07-03T04:31:28;2.25;;;2.05;;
8094;SDS011;4090;49.270;8.696;2022-07-03T04:34:09;2.40;;;2.17;;
8094;SDS011;4090;49.270;8.696;2022-07-03T04:36:52;2.20;;;2.00;;
8094;SDS011;4090;49.270;8.696;2022-07-03T04:39:34;2.40;;;1.95;;
8094;SDS011;4090;49.270;8.696;2022-07-03T04:42:16;4.97;;;2.05;;
8094;SDS011;4090;49.270;8.696;2022-07-03T04:44:59;2.45;;;2.22;;
8094;SDS011;4090;49.270;8.696;2022-07-03T04:47:40;2.65;;;2.30;;
8094;SDS011;4090;49.270;8.696;2022-07-03T04:50:22;5.15;;;2.33;;
8094;SDS011;4090;49.270;8.696;2022-07-03T04:53:07;2.20;;;2.00;;
8094;SDS011;4090;49.270;8.696;2022-07-03T04:55:49;2.70;;;2.38;;
8094;SDS011;4090;49.270;8.696;2022-07-03T04:58:31;4.00;;;2.13;;
8094;SDS011;4090;49.270;8.696;2022-07-03T05:01:14;3.75;;;2.10;;
8094;SDS011;4090;49.270;8.696;2022-07-03T05:03:56;3.20;;;2.13;;
8094;SDS011;4090;49.270;8.696;2022-07-03T05:06:37;4.22;;;2.13;;
8094;SDS011;4090;49.270;8.696;2022-07-03T05:09:19;3.72;;;2.00;;
8094;SDS011;4090;49.270;8.696;2022-07-03T05:12:01;1.85;;;1.73;;
8094;SDS011;4090;49.270;8.696;2022-07-03T05:14:43;1.95;;;1.80;;
8094;SDS011;4090;49.270;8.696;2022-07-03T05:17:27;3.55;;;1.90;;
8094;SDS011;4090;49.270;8.696;2022-07-03T05:20:09;2.53;;;2.10;;
8094;SDS011;4090;49.270;8.696;2022-07-03T05:23:08;3.17;;;2.08;;
8094;SDS011;4090;49.270;8.696;2022-07-03T05:25:50;2.38;;;2.17;;
8094;SDS011;4090;49.270;8.696;2022-07-03T05:28:32;2.03;;;1.90;;
8094;SDS011;4090;49.270;8.696;2022-07-03T05:31:13;2.78;;;2.00;;
8094;SDS011;4090;49.270;8.696;2022-07-03T05:33:57;2.05;;;1.92;;
8094;SDS011;4090;49.270;8.696;2022-07-03T05:36:38;2.20;;;2.00;;
8094;SDS011;4090;49.270;8.696;2022-07-03T05:39:20;3.28;;;2.00;;
8094;SDS011;4090;49.270;8.696;2022-07-03T05:42:14;1.80;;;1.70;;
8094;SDS011;4090;49.270;8.696;2022-07-03T05:44:56;2.33;;;2.08;;
8094;SDS011;4090;49.270;8.696;2022-07-03T05:47:38;2.28;;;1.75;;
8094;SDS011;4090;49.270;8.696;2022-07-03T05:50:21;3.10;;;2.20;;
8094;SDS011;4090;49.270;8.696;2022-07-03T05:53:03;2.67;;;2.10;;
8094;SDS011;4090;49.270;8.696;2022-07-03T05:55:44;3.72;;;2.20;;
8094;SDS011;4090;49.270;8.696;2022-07-03T05:58:26;3.40;;;1.95;;
8094;SDS011;4090;49.270;8.696;2022-07-03T06:01:08;1.88;;;1.75;;
8094;SDS011;4090;49.270;8.696;2022-07-03T06:03:50;3.35;;;1.73;;
8094;SDS011;4090;49.270;8.696;2022-07-03T06:06:33;4.13;;;1.92;;
8094;SDS011;4090;49.270;8.696;2022-07-03T06:09:15;2.35;;;2.08;;
8094;SDS011;4090;49.270;8.696;2022-07-03T06:11:57;2.42;;;2.05;;
8094;SDS011;4090;49.270;8.696;2022-07-03T06:14:39;2.45;;;1.70;;
8094;SDS011;4090;49.270;8.696;2022-07-03T06:17:21;2.28;;;1.90;;
8094;SDS011;4090;49.270;8.696;2022-07-03T06:20:03;2.47;;;1.90;;
8094;SDS011;4090;49.270;8.696;2022-07-03T06:22:47;2.00;;;1.90;;
8094;SDS011;4090;49.270;8.696;2022-07-03T06:25:29;3.15;;;2.10;;
8094;SDS011;4090;49.270;8.696;2022-07-03T06:28:11;1.88;;;1.77;;
8094;SDS011;4090;49.270;8.696;2022-07-03T06:30:53;2.15;;;1.95;;
8094;SDS011;4090;49.270;8.696;2022-07-03T06:33:35;3.30;;;2.00;;
8094;SDS011;4090;49.270;8.696;2022-07-03T06:36:17;2.10;;;1.90;;
8094;SDS011;4090;49.270;8.696;2022-07-03T06:39:00;3.28;;;1.95;;
8094;SDS011;4090;49.270;8.696;2022-07-03T06:41:41;4.72;;;2.15;;
8094;SDS011;4090;49.270;8.696;2022-07-03T06:44:23;3.95;;;2.03;;
8094;SDS011;4090;49.270;8.696;2022-07-03T06:47:05;2.75;;;1.92;;
8094;SDS011;4090;49.270;8.696;2022-07-03T06:49:47;2.85;;;1.90;;
8094;SDS011;4090;49.270;8.696;2022-07-03T06:52:29;4.68;;;1.77;;
8094;SDS011;4090;49.270;8.696;2022-07-03T06:55:12;3.38;;;2.08;;
8094;SDS011;4090;49.270;8.696;2022-07-03T06:57:54;3.00;;;1.95;;
8094;SDS011;4090;49.270;8.696;2022-07-03T07:00:36;2.67;;;2.00;;
8094;SDS011;4090;49.270;8.696;2022-07-03T07:03:18;2.03;;;1.83;;
8094;SDS011;4090;49.270;8.696;2022-07-03T07:06:00;5.18;;;1.77;;
8094;SDS011;4090;49.270;8.696;2022-07-03T07:08:42;2.72;;;1.90;;
8094;SDS011;4090;49.270;8.696;2022-07-03T07:11:25;2.17;;;1.90;;
8094;SDS011;4090;49.270;8.696;2022-07-03T07:14:07;2.03;;;1.70;;
8094;SDS011;4090;49.270;8.696;2022-07-03T07:16:49;2.25;;;1.70;;
8094;SDS011;4090;49.270;8.696;2022-07-03T07:19:31;1.70;;;1.60;;
8094;SDS011;4090;49.270;8.696;2022-07-03T07:22:13;1.63;;;1.50;;
8094;SDS011;4090;49.270;8.696;2022-07-03T07:24:54;1.65;;;1.40;;
8094;SDS011;4090;49.270;8.696;2022-07-03T07:27:38;2.03;;;1.58;;
8094;SDS011;4090;49.270;8.696;2022-07-03T07:30:19;1.88;;;1.45;;
8094;SDS011;4090;49.270;8.696;2022-07-03T07:33:01;1.50;;;1.40;;
8094;SDS011;4090;49.270;8.696;2022-07-03T07:35:43;1.92;;;1.30;;
8094;SDS011;4090;49.270;8.696;2022-07-03T07:38:25;1.60;;;1.50;;
8094;SDS011;4090;49.270;8.696;2022-07-03T07:41:07;1.48;;;1.38;;
8094;SDS011;4090;49.270;8.696;2022-07-03T07:43:50;1.65;;;1.55;;
8094;SDS011;4090;49.270;8.696;2022-07-03T07:46:32;1.85;;;1.20;;
8094;SDS011;4090;49.270;8.696;2022-07-03T07:49:13;1.85;;;1.55;;
8094;SDS011;4090;49.270;8.696;2022-07-03T07:51:55;1.40;;;1.30;;
8094;SDS011;4090;49.270;8.696;2022-07-03T07:54:37;3.63;;;1.42;;
8094;SDS011;4090;49.270;8.696;2022-07-03T07:57:23;1.38;;;1.30;;
8094;SDS011;4090;49.270;8.696;2022-07-03T08:00:08;1.30;;;1.20;;
8094;SDS011;4090;49.270;8.696;2022-07-03T08:02:54;1.77;;;1.30;;
8094;SDS011;4090;49.270;8.696;2022-07-03T08:05:53;1.67;;;1.40;;
8094;SDS011;4090;49.270;8.696;2022-07-03T08:08:35;1.63;;;1.30;;
8094;SDS011;4090;49.270;8.696;2022-07-03T08:11:17;2.42;;;1.30;;
8094;SDS011;4090;49.270;8.696;2022-07-03T08:13:59;1.40;;;1.30;;
8094;SDS011;4090;49.270;8.696;2022-07-03T08:16:42;1.40;;;1.30;;
8094;SDS011;4090;49.270;8.696;2022-07-03T08:19:26;5.47;;;1.45;;
8094;SDS011;4090;49.270;8.696;2022-07-03T08:22:08;2.70;;;1.40;;
8094;SDS011;4090;49.270;8.696;2022-07-03T08:24:50;2.47;;;1.30;;
8094;SDS011;4090;49.270;8.696;2022-07-03T08:27:31;1.13;;;1.13;;
8094;SDS011;4090;49.270;8.696;2022-07-03T08:30:13;2.03;;;1.55;;
8094;SDS011;4090;49.270;8.696;2022-07-03T08:32:58;1.10;;;1.10;;
8094;SDS011;4090;49.270;8.696;2022-07-03T08:35:41;2.35;;;1.30;;
8094;SDS011;4090;49.270;8.696;2022-07-03T08:38:22;2.03;;;1.30;;
8094;SDS011;4090;49.270;8.696;2022-07-03T08:41:10;1.15;;;1.05;;
8094;SDS011;4090;49.270;8.696;2022-07-03T08:43:53;4.95;;;1.30;;
8094;SDS011;4090;49.270;8.696;2022-07-03T08:46:36;2.63;;;1.15;;
8094;SDS011;4090;49.270;8.696;2022-07-03T08:49:20;2.53;;;1.25;;
8094;SDS011;4090;49.270;8.696;2022-07-03T08:52:03;3.10;;;1.70;;
8094;SDS011;4090;49.270;8.696;2022-07-03T08:54:47;1.63;;;1.50;;
8094;SDS011;4090;49.270;8.696;2022-07-03T08:57:30;1.58;;;1.10;;
8094;SDS011;4090;49.270;8.696;2022-07-03T09:00:14;1.60;;;1.50;;
8094;SDS011;4090;49.270;8.696;2022-07-03T09:02:58;1.40;;;1.30;;
8094;SDS011;4090;49.270;8.696;2022-07-03T09:05:45;1.38;;;1.20;;
8094;SDS011;4090;49.270;8.696;2022-07-03T09:08:29;2.20;;;1.20;;
8094;SDS011;4090;49.270;8.696;2022-07-03T09:11:13;1.33;;;1.23;;
8094;SDS011;4090;49.270;8.696;2022-07-03T09:13:55;1.20;;;1.20;;
8094;SDS011;4090;49.270;8.696;2022-07-03T09:16:36;2.33;;;1.30;;
8094;SDS011;4090;49.270;8.696;2022-07-03T09:22:24;1.48;;;1.30;;
8094;SDS011;4090;49.270;8.696;2022-07-03T09:25:07;1.23;;;1.13;;
8094;SDS011;4090;49.270;8.696;2022-07-03T09:27:51;3.05;;;1.25;;
8094;SDS011;4090;49.270;8.696;2022-07-03T09:30:34;1.20;;;1.15;;
8094;SDS011;4090;49.270;8.696;2022-07-03T09:33:18;2.20;;;1.15;;
8094;SDS011;4090;49.270;8.696;2022-07-03T09:36:00;1.85;;;1.15;;
8094;SDS011;4090;49.270;8.696;2022-07-03T09:38:44;1.30;;;1.20;;
8094;SDS011;4090;49.270;8.696;2022-07-03T09:41:26;1.77;;;1.20;;
8094;SDS011;4090;49.270;8.696;2022-07-03T09:44:08;2.15;;;1.08;;
8094;SDS011;4090;49.270;8.696;2022-07-03T09:47:04;1.02;;;1.02;;
8094;SDS011;4090;49.270;8.696;2022-07-03T09:49:50;2.22;;;1.13;;
8094;SDS011;4090;49.270;8.696;2022-07-03T09:52:35;3.53;;;1.00;;
8094;SDS011;4090;49.270;8.696;2022-07-03T09:55:19;2.15;;;1.20;;
8094;SDS011;4090;49.270;8.696;2022-07-03T09:58:01;5.45;;;1.35;;
8094;SDS011;4090;49.270;8.696;2022-07-03T10:00:42;1.83;;;1.10;;
8094;SDS011;4090;49.270;8.696;2022-07-03T10:03:24;1.88;;;0.90;;
8094;SDS011;4090;49.270;8.696;2022-07-03T10:06:06;2.63;;;1.15;;
8094;SDS011;4090;49.270;8.696;2022-07-03T10:08:48;1.80;;;1.05;;
8094;SDS011;4090;49.270;8.696;2022-07-03T10:11:32;1.73;;;1.20;;
8094;SDS011;4090;49.270;8.696;2022-07-03T10:14:15;1.48;;;0.90;;
8094;SDS011;4090;49.270;8.696;2022-07-03T10:16:58;2.30;;;1.10;;
8094;SDS011;4090;49.270;8.696;2022-07-03T10:19:41;1.48;;;1.20;;
8094;SDS011;4090;49.270;8.696;2022-07-03T10:22:23;1.92;;;1.00;;
8094;SDS011;4090;49.270;8.696;2022-07-03T10:25:07;1.50;;;1.20;;
8094;SDS011;4090;49.270;8.696;2022-07-03T10:27:51;1.05;;;0.95;;
8094;SDS011;4090;49.270;8.696;2022-07-03T10:30:33;2.03;;;0.98;;
8094;SDS011;4090;49.270;8.696;2022-07-03T10:33:16;2.10;;;1.23;;
8094;SDS011;4090;49.270;8.696;2022-07-03T10:35:58;2.92;;;1.25;;
8094;SDS011;4090;49.270;8.696;2022-07-03T10:38:42;1.58;;;1.17;;
8094;SDS011;4090;49.270;8.696;2022-07-03T10:41:30;1.10;;;1.00;;
8094;SDS011;4090;49.270;8.696;2022-07-03T10:44:34;1.17;;;1.10;;
8094;SDS011;4090;49.270;8.696;2022-07-03T10:47:38;6.35;;;1.35;;
8094;SDS011;4090;49.270;8.696;2022-07-03T10:50:21;1.00;;;1.00;;
8094;SDS011;4090;49.270;8.696;2022-07-03T10:56:09;1.00;;;1.00;;
8094;SDS011;4090;49.270;8.696;2022-07-03T10:58:55;1.20;;;1.00;;
8094;SDS011;4090;49.270;8.696;2022-07-03T11:01:39;1.52;;;1.13;;
8094;SDS011;4090;49.270;8.696;2022-07-03T11:04:21;2.90;;;0.95;;
8094;SDS011;4090;49.270;8.696;2022-07-03T11:07:09;1.02;;;1.02;;
8094;SDS011;4090;49.270;8.696;2022-07-03T11:09:59;1.17;;;1.08;;
8094;SDS011;4090;49.270;8.696;2022-07-03T11:13:20;1.40;;;1.10;;
8094;SDS011;4090;49.270;8.696;2022-07-03T11:16:02;2.08;;;1.10;;
8094;SDS011;4090;49.270;8.696;2022-07-03T11:18:44;1.67;;;1.38;;
8094;SDS011;4090;49.270;8.696;2022-07-03T11:21:40;1.10;;;1.00;;
8094;SDS011;4090;49.270;8.696;2022-07-03T11:24:27;1.38;;;1.27;;
8094;SDS011;4090;49.270;8.696;2022-07-03T11:27:22;1.02;;;1.00;;
8094;SDS011;4090;49.270;8.696;2022-07-03T11:30:06;1.30;;;1.20;;
8094;SDS011;4090;49.270;8.696;2022-07-03T11:32:52;3.35;;;1.17;;
8094;SDS011;4090;49.270;8.696;2022-07-03T11:38:40;1.52;;;1.10;;
8094;SDS011;4090;49.270;8.696;2022-07-03T11:41:23;2.03;;;0.90;;
8094;SDS011;4090;49.270;8.696;2022-07-03T11:44:07;1.58;;;1.17;;
8094;SDS011;4090;49.270;8.696;2022-07-03T11:46:51;3.13;;;1.30;;
8094;SDS011;4090;49.270;8.696;2022-07-03T11:49:34;0.95;;;0.88;;
8094;SDS011;4090;49.270;8.696;2022-07-03T11:52:30;1.52;;;1.00;;
8094;SDS011;4090;49.270;8.696;2022-07-03T11:55:13;1.08;;;1.00;;
8094;SDS011;4090;49.270;8.696;2022-07-03T11:57:55;2.22;;;1.00;;
8094;SDS011;4090;49.270;8.696;2022-07-03T12:00:39;1.65;;;0.95;;
8094;SDS011;4090;49.270;8.696;2022-07-03T12:03:22;0.80;;;0.80;;
8094;SDS011;4090;49.270;8.696;2022-07-03T12:06:05;1.30;;;0.88;;
8094;SDS011;4090;49.270;8.696;2022-07-03T12:08:47;1.73;;;0.70;;
8094;SDS011;4090;49.270;8.696;2022-07-03T12:11:29;2.33;;;1.00;;
8094;SDS011;4090;49.270;8.696;2022-07-03T12:14:11;0.93;;;0.90;;
8094;SDS011;4090;49.270;8.696;2022-07-03T12:16:54;1.10;;;0.95;;
8094;SDS011;4090;49.270;8.696;2022-07-03T12:19:36;1.73;;;1.02;;
8094;SDS011;4090;49.270;8.696;2022-07-03T12:22:22;1.27;;;0.90;;
8094;SDS011;4090;49.270;8.696;2022-07-03T12:25:05;1.17;;;1.08;;
8094;SDS011;4090;49.270;8.696;2022-07-03T12:27:48;1.08;;;0.98;;
8094;SDS011;4090;49.270;8.696;2022-07-03T12:30:30;0.90;;;0.85;;
8094;SDS011;4090;49.270;8.696;2022-07-03T12:33:14;1.67;;;0.80;;
8094;SDS011;4090;49.270;8.696;2022-07-03T12:36:07;1.65;;;1.10;;
8094;SDS011;4090;49.270;8.696;2022-07-03T12:38:51;1.85;;;1.10;;
8094;SDS011;4090;49.270;8.696;2022-07-03T12:41:34;1.85;;;1.00;;
8094;SDS011;4090;49.270;8.696;2022-07-03T12:44:16;1.13;;;0.98;;
8094;SDS011;4090;49.270;8.696;2022-07-03T12:47:00;1.90;;;0.95;;
8094;SDS011;4090;49.270;8.696;2022-07-03T12:49:44;2.10;;;1.00;;
8094;SDS011;4090;49.270;8.696;2022-07-03T12:52:25;0.82;;;0.82;;
8094;SDS011;4090;49.270;8.696;2022-07-03T12:55:07;2.15;;;1.13;;
8094;SDS011;4090;49.270;8.696;2022-07-03T12:58:13;1.02;;;1.02;;
8094;SDS011;4090;49.270;8.696;2022-07-03T13:01:25;1.00;;;1.00;;
8094;SDS011;4090;49.270;8.696;2022-07-03T13:04:10;2.03;;;1.08;;
8094;SDS011;4090;49.270;8.696;2022-07-03T13:07:00;1.25;;;1.15;;
8094;SDS011;4090;49.270;8.696;2022-07-03T13:09:42;1.27;;;1.00;;
8094;SDS011;4090;49.270;8.696;2022-07-03T13:12:33;1.85;;;1.05;;
8094;SDS011;4090;49.270;8.696;2022-07-03T13:15:15;1.85;;;1.10;;
8094;SDS011;4090;49.270;8.696;2022-07-03T13:17:59;1.38;;;1.08;;
8094;SDS011;4090;49.270;8.696;2022-07-03T13:20:42;1.92;;;1.00;;
8094;SDS011;4090;49.270;8.696;2022-07-03T13:23:25;1.13;;;1.02;;
8094;SDS011;4090;49.270;8.696;2022-07-03T13:26:07;3.13;;;1.35;;
8094;SDS011;4090;49.270;8.696;2022-07-03T13:28:48;1.15;;;1.00;;
8094;SDS011;4090;49.270;8.696;2022-07-03T13:31:30;3.47;;;1.10;;
8094;SDS011;4090;49.270;8.696;2022-07-03T13:34:13;1.65;;;1.10;;
8094;SDS011;4090;49.270;8.696;2022-07-03T13:36:54;0.90;;;0.90;;
8094;SDS011;4090;49.270;8.696;2022-07-03T13:39:37;0.93;;;0.93;;
8094;SDS011;4090;49.270;8.696;2022-07-03T13:42:19;0.85;;;0.80;;
8094;SDS011;4090;49.270;8.696;2022-07-03T13:45:01;4.45;;;1.20;;
8094;SDS011;4090;49.270;8.696;2022-07-03T13:47:43;2.35;;;1.08;;
8094;SDS011;4090;49.270;8.696;2022-07-03T13:50:25;1.77;;;1.10;;
8094;SDS011;4090;49.270;8.696;2022-07-03T13:53:08;1.52;;;1.30;;
8094;SDS011;4090;49.270;8.696;2022-07-03T13:55:51;2.63;;;1.10;;
8094;SDS011;4090;49.270;8.696;2022-07-03T13:58:35;0.77;;;0.77;;
8094;SDS011;4090;49.270;8.696;2022-07-03T14:01:17;1.33;;;1.10;;
8094;SDS011;4090;49.270;8.696;2022-07-03T14:04:00;1.17;;;1.00;;
8094;SDS011;4090;49.270;8.696;2022-07-03T14:06:42;2.60;;;1.15;;
8094;SDS011;4090;49.270;8.696;2022-07-03T14:09:23;1.35;;;0.90;;
8094;SDS011;4090;49.270;8.696;2022-07-03T14:12:07;1.17;;;1.08;;
8094;SDS011;4090;49.270;8.696;2022-07-03T14:14:50;1.80;;;1.00;;
8094;SDS011;4090;49.270;8.696;2022-07-03T14:17:31;1.40;;;1.30;;
8094;SDS011;4090;49.270;8.696;2022-07-03T14:20:13;1.30;;;1.20;;
8094;SDS011;4090;49.270;8.696;2022-07-03T14:22:55;1.08;;;1.05;;
8094;SDS011;4090;49.270;8.696;2022-07-03T14:25:37;2.92;;;1.30;;
8094;SDS011;4090;49.270;8.696;2022-07-03T14:28:21;1.38;;;1.27;;
8094;SDS011;4090;49.270;8.696;2022-07-03T14:31:20;3.25;;;0.95;;
8094;SDS011;4090;49.270;8.696;2022-07-03T14:34:20;1.13;;;1.02;;
8094;SDS011;4090;49.270;8.696;2022-07-03T14:37:02;2.15;;;0.98;;
8094;SDS011;4090;49.270;8.696;2022-07-03T14:39:44;1.48;;;1.20;;
8094;SDS011;4090;49.270;8.696;2022-07-03T14:42:26;1.50;;;1.10;;
8094;SDS011;4090;49.270;8.696;2022-07-03T14:45:09;2.65;;;1.00;;
8094;SDS011;4090;49.270;8.696;2022-07-03T14:47:51;1.70;;;0.90;;
8094;SDS011;4090;49.270;8.696;2022-07-03T14:50:33;2.00;;;1.13;;
8094;SDS011;4090;49.270;8.696;2022-07-03T14:53:15;1.40;;;1.00;;
8094;SDS011;4090;49.270;8.696;2022-07-03T14:55:56;1.88;;;1.40;;
8094;SDS011;4090;49.270;8.696;2022-07-03T14:58:38;1.20;;;1.10;;
8094;SDS011;4090;49.270;8.696;2022-07-03T15:01:22;1.08;;;1.00;;
8094;SDS011;4090;49.270;8.696;2022-07-03T15:04:07;1.00;;;1.00;;
8094;SDS011;4090;49.270;8.696;2022-07-03T15:07:01;0.90;;;0.90;;
8094;SDS011;4090;49.270;8.696;2022-07-03T15:09:46;1.05;;;1.00;;
8094;SDS011;4090;49.270;8.696;2022-07-03T15:12:37;0.95;;;0.95;;
8094;SDS011;4090;49.270;8.696;2022-07-03T15:15:21;2.58;;;1.10;;
8094;SDS011;4090;49.270;8.696;2022-07-03T15:18:06;1.42;;;0.93;;
8094;SDS011;4090;49.270;8.696;2022-07-03T15:20:51;1.60;;;1.10;;
8094;SDS011;4090;49.270;8.696;2022-07-03T15:23:33;1.70;;;1.00;;
8094;SDS011;4090;49.270;8.696;2022-07-03T15:26:15;0.80;;;0.80;;
8094;SDS011;4090;49.270;8.696;2022-07-03T15:29:00;2.45;;;1.20;;
8094;SDS011;4090;49.270;8.696;2022-07-03T15:31:43;2.17;;;1.33;;
8094;SDS011;4090;49.270;8.696;2022-07-03T15:34:26;2.03;;;1.00;;
8094;SDS011;4090;49.270;8.696;2022-07-03T15:37:11;0.90;;;0.90;;
8094;SDS011;4090;49.270;8.696;2022-07-03T15:40:00;2.40;;;1.00;;
8094;SDS011;4090;49.270;8.696;2022-07-03T15:42:48;1.55;;;0.90;;
8094;SDS011;4090;49.270;8.696;2022-07-03T15:45:40;1.20;;;1.10;;
8094;SDS011;4090;49.270;8.696;2022-07-03T15:48:28;4.72;;;1.08;;
8094;SDS011;4090;49.270;8.696;2022-07-03T15:51:19;1.02;;;1.00;;
8094;SDS011;4090;49.270;8.696;2022-07-03T15:54:05;1.73;;;1.40;;
8094;SDS011;4090;49.270;8.696;2022-07-03T15:56:54;1.67;;;0.88;;
8094;SDS011;4090;49.270;8.696;2022-07-03T15:59:39;2.00;;;1.00;;
8094;SDS011;4090;49.270;8.696;2022-07-03T16:02:26;2.08;;;1.08;;
8094;SDS011;4090;49.270;8.696;2022-07-03T16:05:17;1.77;;;1.30;;
8094;SDS011;4090;49.270;8.696;2022-07-03T16:08:06;1.90;;;1.00;;
8094;SDS011;4090;49.270;8.696;2022-07-03T16:10:50;2.75;;;1.40;;
8094;SDS011;4090;49.270;8.696;2022-07-03T16:13:32;1.70;;;1.20;;
8094;SDS011;4090;49.270;8.696;2022-07-03T16:16:14;1.40;;;1.30;;
8094;SDS011;4090;49.270;8.696;2022-07-03T16:18:58;2.17;;;1.70;;
8094;SDS011;4090;49.270;8.696;2022-07-03T16:21:43;1.75;;;1.30;;
8094;SDS011;4090;49.270;8.696;2022-07-03T16:24:26;2.47;;;1.40;;
8094;SDS011;4090;49.270;8.696;2022-07-03T16:27:11;2.30;;;1.27;;
8094;SDS011;4090;49.270;8.696;2022-07-03T16:29:55;1.45;;;0.98;;
8094;SDS011;4090;49.270;8.696;2022-07-03T16:32:38;1.05;;;1.05;;
8094;SDS011;4090;49.270;8.696;2022-07-03T16:35:23;2.50;;;1.00;;
8094;SDS011;4090;49.270;8.696;2022-07-03T16:38:10;1.15;;;1.10;;
8094;SDS011;4090;49.270;8.696;2022-07-03T16:40:55;1.38;;;1.20;;
8094;SDS011;4090;49.270;8.696;2022-07-03T16:43:42;1.67;;;1.00;;
8094;SDS011;4090;49.270;8.696;2022-07-03T16:46:26;1.00;;;1.00;;
8094;SDS011;4090;49.270;8.696;2022-07-03T16:49:09;0.90;;;0.90;;
8094;SDS011;4090;49.270;8.696;2022-07-03T16:51:51;1.27;;;1.10;;
8094;SDS011;4090;49.270;8.696;2022-07-03T16:54:38;1.13;;;1.13;;
8094;SDS011;4090;49.270;8.696;2022-07-03T16:57:22;1.23;;;1.05;;
8094;SDS011;4090;49.270;8.696;2022-07-03T17:00:05;3.95;;;1.15;;
8094;SDS011;4090;49.270;8.696;2022-07-03T17:02:48;1.13;;;1.05;;
8094;SDS011;4090;49.270;8.696;2022-07-03T17:05:31;1.77;;;1.00;;
8094;SDS011;4090;49.270;8.696;2022-07-03T17:08:13;2.33;;;1.23;;
8094;SDS011;4090;49.270;8.696;2022-07-03T17:10:57;2.28;;;1.15;;